DLH765 VOBL-EDDM
Flight info
| Callsign | DLH765 |
|---|---|
| Flight time | N/A |
| Altitude | 36000 |
| Route | OPAMO8A OPAMO W56 BBB G208 APANO G451 AAE Z8 VIKIT P628 RK G202 ZB L750 RANAH B449 DUKAN L850 ADEKI N644 TETRO M10 SARPI UM10 GOKPA UL746 ODERO L746 LUGEB DCT MOPUG DCT SUNIS DCT AMADI Q113 NAPSA NAPSA4A |
| Aircraft | A359/H-SDE2E3GHIJ3J4J5LM1ORWXY/LB1D1 |
Departure
| Time | 2026-05-09 01:23 |
|---|---|
| Airport | Kempegowda International Airport Bengaluru (VOBL) |
Arrival
| Time | N/A |
|---|---|
| Airport | Munich Airport (EDDM) |
| Time | Latitude | Longitude | Altitude | Speed | Heading |
|---|---|---|---|---|---|
| 2026-05-09 01:06 | 13.20091 | 77.71661 | 3017 ft | 0 kts | 180° |
| 2026-05-09 01:07 | 13.20099 | 77.71661 | 3011 ft | 4 kts | 180° |
| 2026-05-09 01:07 | 13.20126 | 77.71661 | 2998 ft | 4 kts | 180° |
| 2026-05-09 01:07 | 13.20153 | 77.71661 | 3024 ft | 3 kts | 180° |
| 2026-05-09 01:08 | 13.20175 | 77.71664 | 3022 ft | 4 kts | 217° |
| 2026-05-09 01:08 | 13.20183 | 77.71683 | 3026 ft | 4 kts | 273° |
| 2026-05-09 01:08 | 13.20182 | 77.71699 | 3022 ft | 0 kts | 270° |
| 2026-05-09 01:11 | 13.20182 | 77.71684 | 3025 ft | 6 kts | 270° |
| 2026-05-09 01:11 | 13.20183 | 77.71608 | 3026 ft | 14 kts | 270° |
| 2026-05-09 01:12 | 13.20191 | 77.71514 | 3023 ft | 13 kts | 289° |
| 2026-05-09 01:12 | 13.20243 | 77.71442 | 3023 ft | 13 kts | 301° |
| 2026-05-09 01:12 | 13.20258 | 77.71355 | 3022 ft | 13 kts | 272° |
| 2026-05-09 01:12 | 13.20259 | 77.71261 | 3017 ft | 15 kts | 270° |
| 2026-05-09 01:13 | 13.20260 | 77.71152 | 3017 ft | 15 kts | 270° |
| 2026-05-09 01:13 | 13.20261 | 77.71042 | 3017 ft | 15 kts | 271° |
| 2026-05-09 01:13 | 13.20262 | 77.70932 | 3017 ft | 15 kts | 270° |
| 2026-05-09 01:13 | 13.20263 | 77.70821 | 3017 ft | 16 kts | 270° |
| 2026-05-09 01:14 | 13.20263 | 77.70711 | 3017 ft | 16 kts | 270° |
| 2026-05-09 01:14 | 13.20264 | 77.70600 | 3017 ft | 16 kts | 270° |
| 2026-05-09 01:14 | 13.20265 | 77.70488 | 3017 ft | 16 kts | 270° |
| 2026-05-09 01:14 | 13.20274 | 77.70415 | 3025 ft | 8 kts | 297° |
| 2026-05-09 01:15 | 13.20316 | 77.70394 | 3023 ft | 7 kts | 350° |
| 2026-05-09 01:15 | 13.20373 | 77.70392 | 3023 ft | 10 kts | 0° |
| 2026-05-09 01:15 | 13.20447 | 77.70392 | 3021 ft | 11 kts | 0° |
| 2026-05-09 01:15 | 13.20520 | 77.70380 | 3022 ft | 10 kts | 321° |
| 2026-05-09 01:16 | 13.20533 | 77.70315 | 3018 ft | 11 kts | 271° |
| 2026-05-09 01:16 | 13.20534 | 77.70225 | 3018 ft | 15 kts | 270° |
| 2026-05-09 01:16 | 13.20535 | 77.70110 | 3018 ft | 16 kts | 270° |
| 2026-05-09 01:17 | 13.20538 | 77.69875 | 3018 ft | 17 kts | 271° |
| 2026-05-09 01:17 | 13.20540 | 77.69756 | 3018 ft | 17 kts | 271° |
| 2026-05-09 01:17 | 13.20539 | 77.69639 | 3017 ft | 16 kts | 269° |
| 2026-05-09 01:17 | 13.20539 | 77.69521 | 3017 ft | 17 kts | 271° |
| 2026-05-09 01:18 | 13.20541 | 77.69402 | 3017 ft | 17 kts | 271° |
| 2026-05-09 01:18 | 13.20543 | 77.69282 | 3017 ft | 17 kts | 270° |
| 2026-05-09 01:18 | 13.20543 | 77.69163 | 3017 ft | 17 kts | 271° |
| 2026-05-09 01:18 | 13.20544 | 77.69045 | 3023 ft | 17 kts | 270° |
| 2026-05-09 01:19 | 13.20545 | 77.68926 | 3025 ft | 17 kts | 270° |
| 2026-05-09 01:19 | 13.20546 | 77.68807 | 3025 ft | 17 kts | 270° |
| 2026-05-09 01:19 | 13.20546 | 77.68697 | 3025 ft | 11 kts | 270° |
| 2026-05-09 01:19 | 13.20556 | 77.68637 | 3023 ft | 8 kts | 302° |
| 2026-05-09 01:20 | 13.20604 | 77.68622 | 3020 ft | 7 kts | 5° |
| 2026-05-09 01:20 | 13.20658 | 77.68623 | 3026 ft | 8 kts | 0° |
| 2026-05-09 01:20 | 13.20708 | 77.68623 | 3025 ft | 5 kts | 0° |
| 2026-05-09 01:20 | 13.20728 | 77.68635 | 3021 ft | 1 kts | 61° |
| 2026-05-09 01:21 | 13.20725 | 77.68647 | 3025 ft | 2 kts | 100° |
| 2026-05-09 01:21 | 13.20721 | 77.68671 | 3017 ft | 4 kts | 95° |
| 2026-05-09 01:21 | 13.20720 | 77.68705 | 3017 ft | 5 kts | 92° |
| 2026-05-09 01:21 | 13.20719 | 77.68743 | 3017 ft | 6 kts | 91° |
| 2026-05-09 01:22 | 13.20718 | 77.68865 | 3025 ft | 43 kts | 90° |
| 2026-05-09 01:22 | 13.20714 | 77.69402 | 3017 ft | 106 kts | 90° |
| 2026-05-09 01:22 | 13.20706 | 77.70357 | 3025 ft | 160 kts | 90° |
| 2026-05-09 01:22 | 13.20695 | 77.71570 | 3554 ft | 165 kts | 91° |
| 2026-05-09 01:23 | 13.20935 | 77.72724 | 4211 ft | 169 kts | 65° |
| 2026-05-09 01:23 | 13.21624 | 77.73753 | 4514 ft | 184 kts | 55° |
| 2026-05-09 01:23 | 13.22390 | 77.74887 | 4616 ft | 207 kts | 59° |
| 2026-05-09 01:23 | 13.23170 | 77.76200 | 4822 ft | 227 kts | 62° |
| 2026-05-09 01:24 | 13.23956 | 77.77678 | 5054 ft | 245 kts | 64° |
| 2026-05-09 01:24 | 13.24771 | 77.79285 | 5318 ft | 262 kts | 64° |
| 2026-05-09 01:24 | 13.25614 | 77.80936 | 5964 ft | 262 kts | 63° |
| 2026-05-09 01:24 | 13.26672 | 77.82472 | 6546 ft | 268 kts | 45° |
| 2026-05-09 01:25 | 13.28307 | 77.83393 | 7124 ft | 274 kts | 15° |
| 2026-05-09 01:25 | 13.30219 | 77.83575 | 7746 ft | 278 kts | 3° |
| 2026-05-09 01:25 | 13.32162 | 77.83403 | 8336 ft | 285 kts | 348° |
| 2026-05-09 01:25 | 13.33977 | 77.82619 | 8989 ft | 289 kts | 334° |
| 2026-05-09 01:26 | 13.35752 | 77.81580 | 9672 ft | 291 kts | 332° |
| 2026-05-09 01:26 | 13.37501 | 77.80532 | 10249 ft | 296 kts | 333° |
| 2026-05-09 01:26 | 13.39303 | 77.79465 | 10524 ft | 311 kts | 333° |
| 2026-05-09 01:26 | 13.41224 | 77.78336 | 10790 ft | 326 kts | 333° |
| 2026-05-09 01:27 | 13.43270 | 77.77140 | 10969 ft | 343 kts | 333° |
| 2026-05-09 01:27 | 13.45371 | 77.75919 | 11000 ft | 362 kts | 332° |
| 2026-05-09 01:27 | 13.47607 | 77.74610 | 11006 ft | 376 kts | 332° |
| 2026-05-09 01:27 | 13.49897 | 77.73269 | 10998 ft | 379 kts | 332° |
| 2026-05-09 01:28 | 13.52192 | 77.71925 | 10998 ft | 380 kts | 332° |
| 2026-05-09 01:28 | 13.54491 | 77.70583 | 11004 ft | 380 kts | 333° |
| 2026-05-09 01:28 | 13.56784 | 77.69244 | 11002 ft | 379 kts | 332° |
| 2026-05-09 01:28 | 13.59078 | 77.67901 | 10998 ft | 379 kts | 332° |
| 2026-05-09 01:29 | 13.61374 | 77.66558 | 11042 ft | 381 kts | 333° |
| 2026-05-09 01:29 | 13.63690 | 77.65205 | 11431 ft | 383 kts | 333° |
| 2026-05-09 01:29 | 13.66002 | 77.63853 | 11988 ft | 382 kts | 332° |
| 2026-05-09 01:29 | 13.68318 | 77.62501 | 12486 ft | 384 kts | 332° |
| 2026-05-09 01:30 | 13.70646 | 77.61140 | 12912 ft | 387 kts | 332° |
| 2026-05-09 01:30 | 13.72995 | 77.59765 | 13356 ft | 390 kts | 332° |
| 2026-05-09 01:30 | 13.75357 | 77.58383 | 13852 ft | 391 kts | 332° |
| 2026-05-09 01:30 | 13.77725 | 77.56996 | 14260 ft | 393 kts | 332° |
| 2026-05-09 01:31 | 13.80113 | 77.55599 | 14625 ft | 397 kts | 332° |
| 2026-05-09 01:31 | 13.82520 | 77.54189 | 14988 ft | 400 kts | 332° |
| 2026-05-09 01:31 | 13.84947 | 77.52768 | 15381 ft | 402 kts | 332° |
| 2026-05-09 01:31 | 13.87385 | 77.51340 | 15757 ft | 405 kts | 332° |
| 2026-05-09 01:32 | 13.89843 | 77.49900 | 16120 ft | 408 kts | 332° |
| 2026-05-09 01:32 | 13.92313 | 77.48452 | 16539 ft | 409 kts | 331° |
| 2026-05-09 01:32 | 13.94790 | 77.47000 | 16921 ft | 411 kts | 331° |
| 2026-05-09 01:32 | 13.97283 | 77.45538 | 17292 ft | 414 kts | 331° |
| 2026-05-09 01:33 | 13.99793 | 77.44067 | 17652 ft | 416 kts | 331° |
| 2026-05-09 01:33 | 14.02319 | 77.42585 | 18019 ft | 419 kts | 331° |
| 2026-05-09 01:33 | 14.04861 | 77.41093 | 18363 ft | 421 kts | 330° |
| 2026-05-09 01:33 | 14.07412 | 77.39596 | 18691 ft | 423 kts | 331° |
| 2026-05-09 01:34 | 14.09975 | 77.38091 | 19023 ft | 425 kts | 330° |
| 2026-05-09 01:34 | 14.12512 | 77.36602 | 19337 ft | 426 kts | 330° |
| 2026-05-09 01:34 | 14.15094 | 77.35085 | 19660 ft | 428 kts | 330° |
| 2026-05-09 01:34 | 14.17718 | 77.33543 | 19981 ft | 430 kts | 330° |
| 2026-05-09 01:35 | 14.20283 | 77.32036 | 20288 ft | 431 kts | 330° |
| 2026-05-09 01:35 | 14.22894 | 77.30501 | 20606 ft | 433 kts | 330° |
| 2026-05-09 01:35 | 14.25515 | 77.28960 | 20956 ft | 433 kts | 330° |
| 2026-05-09 01:35 | 14.28136 | 77.27418 | 21299 ft | 435 kts | 330° |
| 2026-05-09 01:36 | 14.30766 | 77.25871 | 21599 ft | 437 kts | 330° |
| 2026-05-09 01:36 | 14.33412 | 77.24315 | 21903 ft | 438 kts | 330° |
| 2026-05-09 01:36 | 14.36064 | 77.22754 | 22215 ft | 440 kts | 330° |
| 2026-05-09 01:36 | 14.38726 | 77.21186 | 22557 ft | 441 kts | 330° |
| 2026-05-09 01:37 | 14.41396 | 77.19614 | 22883 ft | 443 kts | 330° |
| 2026-05-09 01:37 | 14.44075 | 77.18035 | 23188 ft | 445 kts | 330° |
| 2026-05-09 01:37 | 14.46767 | 77.16449 | 23497 ft | 447 kts | 330° |
| 2026-05-09 01:37 | 14.49469 | 77.14856 | 23745 ft | 449 kts | 330° |
| 2026-05-09 01:38 | 14.52187 | 77.13254 | 23969 ft | 451 kts | 330° |
| 2026-05-09 01:38 | 14.54918 | 77.11643 | 24230 ft | 453 kts | 330° |
| 2026-05-09 01:38 | 14.57664 | 77.10034 | 24482 ft | 455 kts | 331° |
| 2026-05-09 01:38 | 14.60528 | 77.08629 | 24791 ft | 456 kts | 337° |
| 2026-05-09 01:39 | 14.63484 | 77.07425 | 25069 ft | 458 kts | 339° |
| 2026-05-09 01:39 | 14.66489 | 77.06302 | 25340 ft | 461 kts | 340° |
| 2026-05-09 01:39 | 14.69524 | 77.05212 | 25630 ft | 463 kts | 340° |
| 2026-05-09 01:39 | 14.72577 | 77.04126 | 25906 ft | 465 kts | 340° |
| 2026-05-09 01:40 | 14.75642 | 77.03031 | 26201 ft | 468 kts | 340° |